Claytonville, Illinois
Current Conditions -  °F | °C
As of 2:50 PM on Thursday 27 Nov 2014 (Local Time) from KTIP Reporting Station
Light Snow Light Snow  
Wind Chill: 19°   Ceiling: 1700
Heat Index: 29°   Visibility: 4mi
Dew Point: 23°   Wind: 12mph
Humidity: 79%   Direction: 310°NW
Pressure: 30.38"   Gusts: 18mph
Location:  40.57°N, 87.82°W
Report Text: KTIP 272050Z AUTO 31010G16KT 4SM -SN BKN017 BKN023 OVC029 M02/M05 A3038 RMK AO2 T10181050
Loading
Personal Weather Stations






























Interactive Weather Map New forecast layout! Learn more

10-Day Weather Forecast

Advertisements
Track Severe Weather on mobile